| time (UTC) | temp C | wind direction | speed KPH | gust KPH | rain 1hr cm | rain 24hr cm | rain mn cm | humidity % | barometer mb |
| 20260510230904 | 20 | 90 | 0.0 | 27.4 | 0.00 | 0.00 | 0.00 | 34 | 1023.7 |
| 20260510225903 | 21 | 113 | 0.0 | 20.9 | 0.00 | 0.00 | 0.00 | 34 | 1023.7 |
| 20260510222901 | 21 | 135 | 0.0 | 27.4 | 0.00 | 0.00 | 0.00 | 33 | 1023.4 |
| 20260510221900 | 21 | 158 | 9.7 | 17.7 | 0.00 | 0.00 | 0.00 | 32 | 1023.4 |
| 20260510220859 | 21 | 68 | 24.1 | 24.1 | 0.00 | 0.00 | 0.00 | 32 | 1023.4 |
| 20260510215857 | 22 | 113 | 12.9 | 32.2 | 0.00 | 0.00 | 0.00 | 32 | 1023.4 |
| 20260510214856 | 22 | 45 | 25.7 | 25.7 | 0.00 | 0.00 | 0.00 | 32 | 1023.7 |
| 20260510213855 | 22 | 68 | 0.0 | 6.4 | 0.00 | 0.00 | 0.00 | 32 | 1023.7 |
| 20260510212854 | 22 | 68 | 8.0 | 20.9 | 0.00 | 0.00 | 0.00 | 32 | 1023.7 |
| 20260510211853 | 22 | 68 | 4.8 | 12.9 | 0.00 | 0.00 | 0.00 | 32 | 1023.7 |
| 20260510210852 | 22 | 135 | 0.0 | 11.3 | 0.00 | 0.00 | 0.00 | 32 | 1024.0 |
| 20260510205851 | 22 | 113 | 0.0 | 17.7 | 0.00 | 0.00 | 0.00 | 31 | 1023.7 |
| 20260510204851 | 22 | 180 | 9.7 | 9.7 | 0.00 | 0.00 | 0.00 | 31 | 1023.7 |
| 20260510203850 | 22 | 338 | 0.0 | 27.4 | 0.00 | 0.00 | 0.00 | 32 | 1023.7 |
| 20260510202849 | 22 | 68 | 4.8 | 20.9 | 0.00 | 0.00 | 0.00 | 32 | 1023.7 |
| 20260510201847 | 21 | 158 | 0.0 | 8.0 | 0.00 | 0.00 | 0.00 | 32 | 1023.7 |
| 20260510200846 | 20 | 68 | 6.4 | 9.7 | 0.00 | 0.00 | 0.00 | 33 | 1023.7 |
| 20260510194844 | 21 | 68 | 0.0 | 20.9 | 0.00 | 0.00 | 0.00 | 30 | 1023.7 |
| 20260510193843 | 22 | 90 | 0.0 | 17.7 | 0.00 | 0.00 | 0.00 | 29 | 1023.4 |
| 20260510192842 | 23 | 135 | 0.0 | 20.9 | 0.00 | 0.00 | 0.00 | 27 | 1023.0 |
| 20260510191841 | 25 | 45 | 1.6 | 6.4 | 0.00 | 0.00 | 0.00 | 25 | 1023.0 |
| 20260510190840 | 25 | 203 | 8.0 | 11.3 | 0.00 | 0.00 | 0.00 | 25 | 1022.7 |
| 20260510185840 | 25 | 180 | 12.9 | 16.1 | 0.00 | 0.00 | 0.00 | 27 | 1023.0 |
| 20260510183837 | 25 | 135 | 3.2 | 4.8 | 0.00 | 0.00 | 0.00 | 27 | 1023.0 |
| 20260510182837 | 25 | 113 | 0.0 | 8.0 | 0.00 | 0.00 | 0.00 | 27 | 1023.0 |
| 20260510181836 | 23 | 113 | 0.0 | 3.2 | 0.00 | 0.00 | 0.00 | 28 | 1023.0 |
| 20260510180834 | 23 | 90 | 3.2 | 16.1 | 0.00 | 0.00 | 0.00 | 28 | 1023.0 |
| 20260510175833 | 23 | 90 | 0.0 | 24.1 | 0.00 | 0.00 | 0.00 | 29 | 1023.0 |
| 20260510174832 | 21 | 113 | 3.2 | 11.3 | 0.00 | 0.00 | 0.00 | 30 | 1023.0 |
| 20260510173831 | 21 | 135 | 0.0 | 14.5 | 0.00 | 0.00 | 0.00 | 29 | 1023.0 |
| 20260510172830 | 21 | 68 | 12.9 | 12.9 | 0.00 | 0.00 | 0.00 | 29 | 1023.0 |
| 20260510171829 | 22 | 68 | 22.5 | 9.7 | 0.00 | 0.00 | 0.00 | 28 | 1023.0 |
| 20260510170829 | 23 | 90 | 0.0 | 14.5 | 0.00 | 0.00 | 0.00 | 25 | 1023.0 |
| 20260510165827 | 23 | 135 | 0.0 | 11.3 | 0.00 | 0.00 | 0.00 | 25 | 1023.0 |
| 20260510164827 | 24 | 68 | 9.7 | 19.3 | 0.00 | 0.00 | 0.00 | 25 | 1022.7 |
| 20260510163825 | 23 | 180 | 6.4 | 27.4 | 0.00 | 0.00 | 0.00 | 27 | 1023.0 |
| 20260510162825 | 22 | 135 | 0.0 | 9.7 | 0.00 | 0.00 | 0.00 | 27 | 1023.0 |
| 20260510161825 | 22 | 135 | 3.2 | 9.7 | 0.00 | 0.00 | 0.00 | 28 | 1023.0 |
| 20260510160822 | 21 | 113 | 0.0 | 3.2 | 0.00 | 0.00 | 0.00 | 29 | 1023.0 |
| 20260510155821 | 21 | 68 | 8.0 | 6.4 | 0.00 | 0.00 | 0.00 | 29 | 1023.0 |
| 20260510154821 | 20 | 180 | 8.0 | 9.7 | 0.00 | 0.00 | 0.00 | 30 | 1023.4 |
| 20260510153820 | 19 | 158 | 1.6 | 9.7 | 0.00 | 0.00 | 0.00 | 31 | 1023.7 |
| 20260510152818 | 18 | 68 | 0.0 | 6.4 | 0.00 | 0.00 | 0.00 | 33 | 1024.0 |
| 20260510151817 | 18 | 180 | 0.0 | 11.3 | 0.00 | 0.00 | 0.00 | 33 | 1023.4 |
| 20260510150816 | 17 | 180 | 0.0 | 6.4 | 0.00 | 0.00 | 0.00 | 34 | 1022.7 |
| 20260510145815 | 16 | 158 | 4.8 | 14.5 | 0.00 | 0.00 | 0.00 | 35 | 1022.3 |
| 20260510144814 | 16 | 180 | 0.0 | 16.1 | 0.00 | 0.00 | 0.00 | 36 | 1021.7 |
| 20260510140810 | 13 | 158 | 0.0 | 14.5 | 0.00 | 0.00 | 0.00 | 37 | 1020.7 |
| 20260510135809 | 13 | 135 | 0.0 | 0.0 | 0.00 | 0.00 | 0.00 | 37 | 1020.7 |
| 20260510133807 | 13 | 158 | 0.0 | 4.8 | 0.00 | 0.00 | 0.00 | 37 | 1020.7 |
| 20260510132806 | 13 | 360 | 0.0 | 0.0 | 0.00 | 0.00 | 0.00 | 36 | 1020.7 |
| 20260510131806 | 12 | 360 | 0.0 | 0.0 | 0.00 | 0.00 | 0.00 | 36 | 1020.7 |
| 20260510130804 | 12 | 360 | 0.0 | 0.0 | 0.00 | 0.00 | 0.00 | 35 | 1020.7 |
| 20260510123801 | 13 | 360 | 0.0 | 0.0 | 0.00 | 0.00 | 0.00 | 33 | 1021.0 |
| 20260510122800 | 13 | 360 | 0.0 | 0.0 | 0.00 | 0.00 | 0.00 | 33 | 1021.3 |
| 20260510121759 | 13 | 360 | 0.0 | 0.0 | 0.00 | 0.00 | 0.00 | 32 | 1021.3 |
| 20260510120758 | 13 | 360 | 0.0 | 0.0 | 0.00 | 0.00 | 0.00 | 32 | 1021.7 |
| 20260510115757 | 13 | 360 | 0.0 | 0.0 | 0.00 | 0.00 | 0.00 | 32 | 1021.7 |
| 20260510114756 | 14 | 360 | 0.0 | 0.0 | 0.00 | 0.00 | 0.00 | 32 | 1021.7 |
| 20260510113755 | 14 | 360 | 0.0 | 0.0 | 0.00 | 0.00 | 0.00 | 32 | 1021.7 |
| 20260510111754 | 14 | 338 | 0.0 | 6.4 | 0.00 | 0.00 | 0.00 | 32 | 1021.7 |
| 20260510110753 | 14 | 293 | 0.0 | 0.0 | 0.00 | 0.00 | 0.00 | 32 | 1021.7 |
| 20260510105751 | 14 | 225 | 0.0 | 24.1 | 0.00 | 0.00 | 0.00 | 32 | 1021.7 |
| 20260510104751 | 13 | 293 | 4.8 | 14.5 | 0.00 | 0.00 | 0.00 | 30 | 1021.7 |
| 20260510103750 | 13 | 270 | 0.0 | 0.0 | 0.00 | 0.00 | 0.00 | 29 | 1021.7 |
| 20260510102749 | 13 | 360 | 0.0 | 0.0 | 0.00 | 0.00 | 0.00 | 29 | 1022.0 |
| 20260510101747 | 13 | 45 | 0.0 | 0.0 | 0.00 | 0.00 | 0.00 | 29 | 1022.0 |
| 20260510100747 | 13 | 45 | 0.0 | 0.0 | 0.00 | 0.00 | 0.00 | 28 | 1021.7 |
| 20260510095931 | 14 | 45 | 0.0 | 0.0 | 0.00 | 0.00 | 0.00 | 28 | 1021.0 |
| 20260510095746 | 14 | 45 | 0.0 | 0.0 | 0.00 | 0.00 | 0.00 | 28 | 1021.0 |
| 20260510094745 | 14 | 45 | 0.0 | 0.0 | 0.00 | 0.00 | 0.00 | 28 | 1021.0 |
| 20260510093744 | 14 | 68 | 0.0 | 0.0 | 0.00 | 0.00 | 0.00 | 28 | 1020.7 |
| 20260510092742 | 14 | 68 | 0.0 | 0.0 | 0.00 | 0.00 | 0.00 | 28 | 1020.7 |
| 20260510091742 | 15 | 68 | 0.0 | 0.0 | 0.00 | 0.00 | 0.00 | 28 | 1020.7 |
| 20260510090741 | 14 | 68 | 0.0 | 0.0 | 0.00 | 0.00 | 0.00 | 28 | 1020.3 |
| 20260510085740 | 14 | 338 | 0.0 | 0.0 | 0.00 | 0.00 | 0.00 | 27 | 1020.0 |
| 20260510084739 | 14 | 315 | 0.0 | 0.0 | 0.00 | 0.00 | 0.00 | 27 | 1019.6 |
| 20260510083738 | 14 | 315 | 0.0 | 0.0 | 0.00 | 0.00 | 0.00 | 27 | 1019.6 |
| 20260510082737 | 14 | 315 | 0.0 | 0.0 | 0.00 | 0.00 | 0.00 | 27 | 1019.6 |
| 20260510081736 | 15 | 315 | 0.0 | 0.0 | 0.00 | 0.00 | 0.00 | 26 | 1019.6 |
| 20260510080735 | 15 | 315 | 0.0 | 3.2 | 0.00 | 0.00 | 0.00 | 26 | 1019.3 |
| 20260510075734 | 15 | 315 | 0.0 | 0.0 | 0.00 | 0.00 | 0.00 | 26 | 1019.3 |
| 20260510074733 | 15 | 315 | 0.0 | 0.0 | 0.00 | 0.00 | 0.00 | 26 | 1019.3 |
| 20260510073732 | 15 | 315 | 0.0 | 8.0 | 0.00 | 0.00 | 0.00 | 26 | 1019.3 |
| 20260510072917 | 14 | 293 | 0.0 | 0.0 | 0.00 | 0.00 | 0.00 | 26 | 1019.3 |
| 20260510072730 | 14 | 293 | 0.0 | 0.0 | 0.00 | 0.00 | 0.00 | 26 | 1019.3 |
| 20260510071729 | 14 | 360 | 0.0 | 0.0 | 0.00 | 0.00 | 0.00 | 26 | 1019.3 |
| 20260510070729 | 14 | 23 | 0.0 | 0.0 | 0.00 | 0.00 | 0.00 | 26 | 1019.3 |
| 20260510065727 | 14 | 23 | 0.0 | 4.8 | 0.00 | 0.00 | 0.00 | 26 | 1019.0 |
| 20260510064726 | 14 | 23 | 0.0 | 0.0 | 0.00 | 0.00 | 0.00 | 26 | 1019.0 |
| 20260510063726 | 13 | 23 | 0.0 | 4.8 | 0.00 | 0.00 | 0.00 | 26 | 1019.0 |
| 20260510061724 | 12 | 360 | 0.0 | 0.0 | 0.00 | 0.00 | 0.00 | 27 | 1018.6 |
| 20260510060723 | 12 | 360 | 0.0 | 1.6 | 0.00 | 0.00 | 0.00 | 26 | 1018.3 |
| 20260510055721 | 13 | 360 | 0.0 | 0.0 | 0.00 | 0.00 | 0.00 | 26 | 1018.3 |
| 20260510054721 | 13 | 360 | 0.0 | 0.0 | 0.00 | 0.00 | 0.00 | 26 | 1018.3 |
| 20260510053719 | 13 | 360 | 0.0 | 0.0 | 0.00 | 0.00 | 0.00 | 26 | 1018.3 |
| 20260510052718 | 13 | 360 | 0.0 | 0.0 | 0.00 | 0.00 | 0.00 | 25 | 1017.9 |
| 20260510051717 | 14 | 360 | 0.0 | 0.0 | 0.00 | 0.00 | 0.00 | 25 | 1017.9 |
| 20260510050716 | 15 | 360 | 0.0 | 0.0 | 0.00 | 0.00 | 0.00 | 25 | 1017.9 |
| 20260510045715 | 15 | 360 | 0.0 | 0.0 | 0.00 | 0.00 | 0.00 | 24 | 1017.9 |
| 20260510044714 | 16 | 360 | 0.0 | 0.0 | 0.00 | 0.00 | 0.00 | 24 | 1017.9 |
| 20260510043713 | 16 | 360 | 0.0 | 0.0 | 0.00 | 0.00 | 0.00 | 24 | 1017.9 |
| 20260510041711 | 17 | 360 | 0.0 | 0.0 | 0.00 | 0.00 | 0.00 | 23 | 1017.6 |
| 20260510040710 | 18 | 360 | 0.0 | 0.0 | 0.00 | 0.00 | 0.00 | 23 | 1017.6 |
| 20260510035709 | 18 | 360 | 0.0 | 0.0 | 0.00 | 0.00 | 0.00 | 22 | 1017.3 |
| 20260510034708 | 18 | 360 | 0.0 | 0.0 | 0.00 | 0.00 | 0.00 | 22 | 1017.3 |
| 20260510033708 | 18 | 360 | 0.0 | 0.0 | 0.00 | 0.00 | 0.00 | 22 | 1016.9 |
| 20260510032706 | 18 | 270 | 8.0 | 11.3 | 0.00 | 0.00 | 0.00 | 22 | 1017.3 |
| 20260510031705 | 18 | 315 | 0.0 | 6.4 | 0.00 | 0.00 | 0.00 | 22 | 1017.3 |
| 20260510030704 | 18 | 315 | 0.0 | 19.3 | 0.00 | 0.00 | 0.00 | 23 | 1017.3 |
| 20260510021700 | 20 | 315 | 0.0 | 0.0 | 0.00 | 0.00 | 0.00 | 20 | 1016.6 |
| 20260510020658 | 20 | 315 | 0.0 | 0.0 | 0.00 | 0.00 | 0.00 | 19 | 1016.3 |
| 20260510015657 | 21 | 315 | 0.0 | 0.0 | 0.00 | 0.00 | 0.00 | 19 | 1016.3 |
| 20260510014656 | 21 | 315 | 0.0 | 0.0 | 0.00 | 0.00 | 0.00 | 19 | 1015.9 |
| 20260510013655 | 21 | 315 | 0.0 | 0.0 | 0.00 | 0.00 | 0.00 | 18 | 1016.3 |
| 20260510012654 | 22 | 315 | 0.0 | 3.2 | 0.00 | 0.00 | 0.00 | 18 | 1015.9 |
| 20260510011653 | 22 | 315 | 0.0 | 4.8 | 0.00 | 0.00 | 0.00 | 18 | 1015.9 |
| 20260510010652 | 22 | 270 | 4.8 | 6.4 | 0.00 | 0.00 | 0.00 | 18 | 1015.9 |
| 20260510005651 | 22 | 270 | 0.0 | 32.2 | 0.00 | 0.00 | 0.00 | 18 | 1015.9 |
| 20260510004650 | 23 | 315 | 0.0 | 11.3 | 0.00 | 0.00 | 0.00 | 17 | 1015.9 |
| 20260510003649 | 23 | 270 | 0.0 | 8.0 | 0.00 | 0.00 | 0.00 | 17 | 1015.6 |
| 20260510002648 | 23 | 270 | 0.0 | 1.6 | 0.00 | 0.00 | 0.00 | 17 | 1015.6 |
| 20260510001647 | 24 | 315 | 4.8 | 17.7 | 0.00 | 0.00 | 0.00 | 17 | 1015.6 |
| 20260510000647 | 24 | 270 | 6.4 | 11.3 | 0.00 | 0.00 | 0.00 | 17 | 1015.6 |
| 20260509235646 | 25 | 293 | 0.0 | 11.3 | 0.00 | 0.00 | 0.00 | 16 | 1015.6 |
| 20260509234644 | 25 | 315 | 3.2 | 6.4 | 0.00 | 0.00 | 0.00 | 16 | 1015.9 |
| 20260509233644 | 25 | 315 | 0.0 | 6.4 | 0.00 | 0.00 | 0.00 | 16 | 1015.9 |
| 20260509232643 | 26 | 315 | 0.0 | 8.0 | 0.00 | 0.00 | 0.00 | 16 | 1015.9 |
| 20260509231642 | 26 | 360 | 11.3 | 16.1 | 0.00 | 0.00 | 0.00 | 16 | 1015.9 |